createdAt,value
2019-04-05T00:00:51.013Z,11.67
2019-04-05T00:03:20.766Z,10.33
2019-04-05T00:05:51.652Z,8.60
2019-04-05T00:08:21.473Z,8.83
2019-04-05T00:10:51.695Z,8.07
2019-04-05T00:13:21.614Z,6.37
2019-04-05T00:15:51.493Z,6.95
2019-04-05T00:18:21.445Z,5.92
2019-04-05T00:20:53.253Z,9.33
2019-04-05T00:23:23.060Z,8.03
2019-04-05T00:25:54.459Z,6.37
2019-04-05T00:28:24.282Z,7.10
2019-04-05T00:30:54.021Z,6.97
2019-04-05T00:33:23.918Z,7.08
2019-04-05T00:35:53.629Z,8.07
2019-04-05T00:38:23.443Z,6.87
2019-04-05T00:40:53.326Z,9.03
2019-04-05T00:43:23.146Z,9.87
2019-04-05T00:45:52.937Z,10.67
2019-04-05T00:48:22.793Z,7.83
2019-04-05T00:50:52.658Z,8.67
2019-04-05T00:53:22.546Z,8.43
2019-04-05T00:55:52.370Z,8.63
2019-04-05T00:58:22.251Z,10.37
2019-04-05T01:00:52.128Z,12.40
2019-04-05T01:03:21.874Z,9.95
2019-04-05T01:05:52.713Z,12.67
2019-04-05T01:08:22.751Z,11.73
2019-04-05T01:10:52.605Z,14.23
2019-04-05T01:13:22.419Z,14.60
2019-04-05T01:15:52.626Z,12.77
2019-04-05T01:18:22.498Z,12.23
2019-04-05T01:20:53.578Z,13.87
2019-04-05T01:23:24.169Z,12.93
2019-04-05T01:25:56.543Z,12.97
2019-04-05T01:28:26.418Z,14.37
2019-04-05T01:30:56.233Z,14.55
2019-04-05T01:33:26.182Z,14.20
2019-04-05T01:35:55.997Z,17.57
2019-04-05T01:38:25.777Z,13.50
2019-04-05T01:40:57.264Z,15.43
2019-04-05T01:43:27.150Z,14.83
2019-04-05T01:45:58.499Z,14.20
2019-04-05T01:48:28.232Z,13.87
2019-04-05T01:50:58.032Z,15.30
2019-04-05T01:53:28.733Z,17.20
2019-04-05T01:55:58.619Z,14.03
2019-04-05T01:58:28.410Z,14.33
2019-04-05T02:00:58.286Z,15.13
2019-04-05T02:03:28.140Z,13.87
2019-04-05T02:05:58.245Z,14.33
2019-04-05T02:08:28.330Z,14.90
2019-04-05T02:10:59.209Z,17.23
2019-04-05T02:13:29.053Z,16.53
2019-04-05T02:16:06.197Z,13.28
2019-04-05T02:18:31.511Z,15.20
2019-04-05T02:21:01.458Z,16.57
2019-04-05T02:23:31.319Z,20.43
2019-04-05T02:26:01.229Z,17.10
2019-04-05T02:28:31.091Z,15.67
2019-04-05T02:31:01.826Z,16.80
2019-04-05T02:33:31.684Z,16.43
2019-04-05T02:36:01.571Z,16.37
2019-04-05T02:38:31.427Z,14.67
2019-04-05T02:41:02.718Z,14.93
2019-04-05T02:43:34.935Z,17.87
2019-04-05T02:46:05.132Z,17.43
2019-04-05T02:48:37.302Z,16.70
2019-04-05T02:51:09.178Z,14.77
2019-04-05T02:53:40.276Z,16.00
2019-04-05T02:56:11.350Z,17.87
2019-04-05T02:58:42.197Z,14.10
2019-04-05T03:01:12.577Z,17.23
2019-04-05T03:03:44.061Z,17.77
2019-04-05T03:06:14.732Z,16.43
2019-04-05T03:08:44.705Z,18.63
2019-04-05T03:11:15.790Z,21.75
2019-04-05T03:13:50.338Z,18.80
2019-04-05T03:16:39.565Z,15.37
2019-04-05T03:19:08.563Z,19.70
2019-04-05T03:21:41.547Z,26.47
2019-04-05T03:24:15.566Z,20.40
2019-04-05T03:26:49.993Z,20.10
2019-04-05T03:29:19.905Z,19.60
2019-04-05T03:31:49.911Z,19.97
2019-04-05T03:34:20.278Z,17.05
2019-04-05T03:36:51.963Z,17.60
2019-04-05T03:39:23.487Z,20.63
2019-04-05T03:41:54.599Z,24.57
2019-04-05T03:44:24.490Z,22.42
2019-04-05T03:46:57.720Z,26.13
2019-04-05T03:49:27.086Z,26.67
2019-04-05T03:51:57.185Z,25.47
2019-04-05T03:54:27.825Z,20.73
2019-04-05T03:56:57.720Z,22.67
2019-04-05T03:59:27.634Z,20.73
2019-04-05T04:01:57.679Z,23.50
2019-04-05T04:04:27.631Z,23.60
2019-04-05T04:06:57.797Z,22.67
2019-04-05T04:09:27.867Z,18.73
2019-04-05T04:11:57.782Z,24.57
2019-04-05T04:14:28.607Z,17.30
2019-04-05T04:17:11.472Z,20.70
2019-04-05T04:19:30.543Z,19.57
2019-04-05T04:22:26.037Z,20.23
2019-04-05T04:24:59.349Z,17.30
2019-04-05T04:27:29.772Z,18.57
2019-04-05T04:30:00.451Z,21.77
2019-04-05T04:32:30.832Z,19.77
2019-04-05T04:35:00.681Z,22.63
2019-04-05T04:37:30.630Z,20.30
2019-04-05T04:40:00.585Z,17.73
2019-04-05T04:42:30.451Z,21.53
2019-04-05T04:45:11.299Z,21.95
2019-04-05T04:47:32.838Z,21.05
2019-04-05T04:50:03.000Z,22.50
2019-04-05T04:52:33.605Z,21.73
2019-04-05T04:55:03.589Z,19.73
2019-04-05T04:57:33.367Z,20.93
2019-04-05T05:00:03.648Z,20.30
2019-04-05T05:02:33.902Z,16.43
2019-04-05T05:05:04.270Z,20.60
2019-04-05T05:07:34.325Z,18.33
2019-04-05T05:10:04.923Z,22.87
2019-04-05T05:12:34.784Z,21.82
2019-04-05T05:15:05.173Z,17.57
2019-04-05T05:17:38.729Z,17.77
2019-04-05T05:20:07.217Z,23.97
2019-04-05T05:22:37.473Z,23.27
2019-04-05T05:25:07.845Z,24.17
2019-04-05T05:27:37.652Z,20.37
2019-04-05T05:30:08.370Z,19.17
2019-04-05T05:32:38.546Z,16.93
2019-04-05T05:35:08.421Z,19.17
2019-04-05T05:37:38.374Z,21.03
2019-04-05T05:40:08.670Z,20.10
2019-04-05T05:42:38.717Z,22.30
2019-04-05T05:45:09.555Z,21.93
2019-04-05T05:47:51.198Z,15.35
2019-04-05T05:50:10.950Z,21.87
2019-04-05T05:52:41.207Z,22.97
2019-04-05T05:55:11.205Z,22.42
2019-04-05T05:57:40.904Z,21.27
2019-04-05T06:00:11.782Z,23.43
2019-04-05T06:02:41.560Z,17.57
2019-04-05T06:05:11.418Z,21.27
2019-04-05T06:07:41.195Z,18.17
2019-04-05T06:10:11.256Z,18.23
2019-04-05T06:12:40.964Z,22.93
2019-04-05T06:15:11.733Z,23.63
2019-04-05T06:17:41.425Z,19.50
2019-04-05T06:20:11.490Z,17.27
2019-04-05T06:22:41.265Z,20.63
2019-04-05T06:25:11.070Z,19.77
2019-04-05T06:27:40.769Z,23.33
2019-04-05T06:30:10.633Z,20.17
2019-04-05T06:32:40.425Z,21.00
2019-04-05T06:35:11.200Z,19.43
2019-04-05T06:37:40.913Z,18.53
2019-04-05T06:40:10.785Z,23.07
2019-04-05T06:42:40.565Z,19.43
2019-04-05T06:45:10.434Z,22.57
2019-04-05T06:47:40.290Z,21.37
2019-04-05T06:50:10.169Z,20.77
2019-04-05T06:52:39.870Z,19.80
2019-04-05T06:55:09.750Z,22.10
2019-04-05T06:57:39.458Z,24.20
2019-04-05T07:00:09.325Z,21.57
2019-04-05T07:02:39.260Z,23.83
2019-04-05T07:05:09.222Z,19.00
2019-04-05T07:07:39.011Z,22.20
2019-04-05T07:10:09.013Z,21.07
2019-04-05T07:12:38.734Z,19.97
2019-04-05T07:15:08.684Z,20.75
2019-04-05T07:17:38.563Z,17.43
2019-04-05T07:20:08.485Z,19.10
2019-04-05T07:22:39.597Z,18.17
2019-04-05T07:25:09.811Z,20.87
2019-04-05T07:27:39.522Z,21.57
2019-04-05T07:30:09.699Z,17.95
2019-04-05T07:32:39.436Z,18.23
2019-04-05T07:35:09.581Z,17.73
2019-04-05T07:37:40.361Z,19.63
2019-04-05T07:40:10.341Z,18.02
2019-04-05T07:42:40.065Z,20.03
2019-04-05T07:45:10.030Z,20.80
2019-04-05T07:47:39.830Z,17.10
2019-04-05T07:50:10.094Z,18.70
2019-04-05T07:52:39.821Z,17.37
2019-04-05T07:55:10.090Z,17.53
2019-04-05T07:57:39.833Z,17.35
2019-04-05T08:00:12.973Z,18.20
2019-04-05T08:02:42.697Z,21.70
2019-04-05T08:05:12.555Z,16.82
2019-04-05T08:07:45.396Z,14.20
2019-04-05T08:10:15.437Z,14.63
2019-04-05T08:12:47.254Z,16.23
2019-04-05T08:15:16.989Z,15.80
2019-04-05T08:17:46.841Z,15.10
2019-04-05T08:20:16.649Z,14.40
2019-04-05T08:22:46.829Z,14.30
2019-04-05T08:25:16.688Z,12.33
2019-04-05T08:27:46.485Z,12.85
2019-04-05T08:30:16.450Z,12.63
2019-04-05T08:32:46.177Z,15.35
2019-04-05T08:35:15.889Z,13.40
2019-04-05T08:37:45.635Z,12.43
2019-04-05T08:40:15.721Z,14.28
2019-04-05T08:42:45.563Z,14.87
2019-04-05T08:45:15.409Z,13.70
2019-04-05T08:47:45.216Z,12.07
2019-04-05T08:50:15.289Z,12.40
2019-04-05T08:52:45.010Z,14.10
2019-04-05T08:55:14.789Z,10.72
2019-04-05T08:57:44.542Z,11.83
2019-04-05T09:00:15.690Z,14.78
2019-04-05T09:02:45.502Z,11.40
2019-04-05T09:05:15.577Z,15.73
2019-04-05T09:07:45.310Z,11.03
2019-04-05T09:10:15.177Z,12.47
2019-04-05T09:12:44.915Z,14.15
2019-04-05T09:15:14.885Z,9.40
2019-04-05T09:17:44.602Z,11.28
2019-04-05T09:20:14.465Z,9.20
2019-04-05T09:22:44.240Z,10.13
2019-04-05T09:25:14.227Z,10.80
2019-04-05T09:27:44.018Z,10.68
2019-04-05T09:30:14.098Z,10.57
2019-04-05T09:32:43.893Z,11.17
2019-04-05T09:35:13.750Z,10.95
2019-04-05T09:37:43.479Z,9.57
2019-04-05T09:40:13.554Z,12.25
2019-04-05T09:42:43.289Z,12.83
2019-04-05T09:45:13.119Z,10.80
2019-04-05T09:47:42.829Z,10.30
2019-04-05T09:50:12.799Z,12.25
2019-04-05T09:52:42.717Z,13.97
2019-04-05T09:55:12.758Z,11.18
2019-04-05T09:57:42.499Z,10.82
2019-04-05T10:00:23.530Z,10.10
2019-04-05T10:02:53.414Z,10.98
2019-04-05T10:05:23.281Z,11.83
2019-04-05T10:07:55.241Z,10.17
2019-04-05T10:10:24.657Z,10.78
2019-04-05T10:12:54.366Z,10.38
2019-04-05T10:15:24.222Z,8.88
2019-04-05T10:17:54.021Z,10.43
2019-04-05T10:20:24.797Z,8.43
2019-04-05T10:22:54.528Z,7.85
2019-04-05T10:25:24.238Z,9.90
2019-04-05T10:27:54.097Z,8.18
2019-04-05T10:30:24.026Z,9.90
2019-04-05T10:32:53.813Z,8.97
2019-04-05T10:35:23.602Z,9.90
2019-04-05T10:37:53.482Z,9.07
2019-04-05T10:40:23.297Z,7.80
2019-04-05T10:42:52.997Z,6.72
2019-04-05T10:45:22.793Z,7.50
2019-04-05T10:47:52.645Z,8.05
2019-04-05T10:50:23.596Z,7.85
2019-04-05T10:52:53.591Z,8.13
2019-04-05T10:55:23.456Z,4.95
2019-04-05T10:57:53.192Z,7.78
2019-04-05T11:00:23.461Z,5.28
2019-04-05T11:02:53.166Z,6.37
2019-04-05T11:05:22.990Z,6.03
2019-04-05T11:07:55.843Z,5.28
2019-04-05T11:10:25.771Z,5.08
2019-04-05T11:12:55.931Z,4.60
2019-04-05T11:15:25.738Z,6.30
2019-04-05T11:17:55.528Z,5.53
2019-04-05T11:20:25.401Z,4.65
2019-04-05T11:22:55.200Z,6.17
2019-04-05T11:25:24.939Z,4.50
2019-04-05T11:27:54.696Z,6.07
2019-04-05T11:30:40.873Z,5.67
2019-04-05T11:33:10.741Z,8.33
2019-04-05T11:35:40.617Z,5.75
2019-04-05T11:38:10.525Z,6.77
2019-04-05T11:40:40.627Z,4.63
2019-04-05T11:43:10.501Z,4.45
2019-04-05T11:45:40.921Z,6.70
2019-04-05T11:48:10.702Z,4.95
2019-04-05T11:50:40.498Z,5.47
2019-04-05T11:53:10.291Z,6.03
2019-04-05T11:55:40.082Z,6.37
2019-04-05T11:58:09.792Z,7.30
2019-04-05T12:00:52.209Z,5.90
2019-04-05T12:03:22.262Z,5.85
2019-04-05T12:05:51.993Z,8.13
2019-04-05T12:08:21.877Z,5.12
2019-04-05T12:10:51.673Z,7.80
2019-04-05T12:13:21.418Z,7.10
2019-04-05T12:15:51.185Z,6.28
2019-04-05T12:18:21.362Z,5.20
2019-04-05T12:20:59.770Z,6.60
2019-04-05T12:23:23.629Z,5.08
2019-04-05T12:25:54.666Z,5.22
2019-04-05T12:28:24.741Z,6.22
2019-04-05T12:30:54.606Z,5.87
2019-04-05T12:33:24.411Z,7.90
2019-04-05T12:35:56.589Z,5.67
2019-04-05T12:38:33.026Z,7.75
2019-04-05T12:41:04.587Z,5.62
2019-04-05T12:43:36.397Z,6.67
2019-04-05T12:46:06.534Z,5.93
2019-04-05T12:48:36.254Z,5.63
2019-04-05T12:51:06.120Z,7.47
2019-04-05T12:53:35.997Z,6.47
2019-04-05T12:56:06.333Z,7.30
2019-04-05T12:58:36.141Z,7.92
2019-04-05T13:01:08.395Z,7.20
2019-04-05T13:03:37.620Z,6.10
2019-04-05T13:06:07.506Z,8.87
2019-04-05T13:08:37.312Z,9.00
2019-04-05T13:11:07.180Z,7.17
2019-04-05T13:13:36.874Z,11.87
2019-04-05T13:16:09.798Z,6.63
2019-04-05T13:18:38.218Z,7.37
2019-04-05T13:21:15.248Z,8.70
2019-04-05T13:23:39.836Z,8.55
2019-04-05T13:26:12.329Z,7.47
2019-04-05T13:28:42.421Z,6.47
2019-04-05T13:31:12.285Z,9.35
2019-04-05T13:33:42.054Z,10.65
2019-04-05T13:36:11.957Z,10.23
2019-04-05T13:38:54.040Z,9.53
2019-04-05T13:41:13.155Z,10.10
2019-04-05T13:43:42.889Z,9.38
2019-04-05T13:46:21.775Z,9.13
2019-04-05T13:48:44.221Z,11.83
2019-04-05T13:51:14.010Z,9.77
2019-04-05T13:53:43.733Z,10.60
2019-04-05T13:56:13.441Z,12.67
2019-04-05T13:58:46.171Z,11.05
2019-04-05T14:01:14.733Z,10.03
2019-04-05T14:03:45.525Z,10.57
2019-04-05T14:06:15.546Z,13.08
2019-04-05T14:08:48.969Z,11.83
2019-04-05T14:11:18.814Z,14.35
2019-04-05T14:13:48.658Z,14.73
2019-04-05T14:16:18.374Z,13.17
2019-04-05T14:18:49.821Z,15.90
2019-04-05T14:21:22.244Z,13.90
2019-04-05T14:23:53.321Z,16.63
2019-04-05T14:26:22.846Z,13.50
2019-04-05T14:28:53.122Z,14.67
2019-04-05T14:31:23.205Z,12.97
2019-04-05T14:33:54.776Z,14.53
2019-04-05T14:36:24.831Z,14.65
2019-04-05T14:38:55.644Z,15.68
2019-04-05T14:41:25.390Z,12.70
2019-04-05T14:43:55.167Z,11.10
2019-04-05T14:46:28.217Z,13.50
2019-04-05T14:48:56.453Z,17.50
2019-04-05T14:51:28.409Z,19.25
2019-04-05T14:53:59.517Z,16.60
2019-04-05T14:56:29.330Z,15.00
2019-04-05T14:58:59.667Z,17.40
2019-04-05T15:01:29.541Z,16.10
2019-04-05T15:03:59.397Z,17.82
2019-04-05T15:06:29.129Z,17.60
2019-04-05T15:09:01.965Z,15.07
2019-04-05T15:11:32.300Z,15.77
2019-04-05T15:14:02.081Z,13.03
2019-04-05T15:16:31.825Z,15.27
2019-04-05T15:19:01.609Z,13.65
2019-04-05T15:21:31.451Z,17.35
2019-04-05T15:24:01.161Z,19.17
2019-04-05T15:26:30.913Z,17.80
2019-04-05T15:29:00.702Z,20.07
2019-04-05T15:31:30.556Z,15.13
2019-04-05T15:34:00.277Z,24.00
2019-04-05T15:36:31.539Z,19.17
2019-04-05T15:39:02.094Z,16.40
2019-04-05T15:41:33.658Z,17.30
2019-04-05T15:44:05.275Z,16.97
2019-04-05T15:46:35.093Z,17.73
2019-04-05T15:49:04.957Z,18.75
2019-04-05T15:51:34.971Z,14.93
2019-04-05T15:54:04.904Z,17.97
2019-04-05T15:56:34.800Z,15.67
2019-04-05T15:59:04.984Z,19.15
2019-04-05T16:01:35.830Z,16.20
2019-04-05T16:04:06.722Z,19.53
2019-04-05T16:06:38.974Z,17.80
2019-04-05T16:09:10.031Z,19.90
2019-04-05T16:11:40.341Z,19.70
2019-04-05T16:14:10.130Z,17.30
2019-04-05T16:16:39.906Z,21.20
2019-04-05T16:19:09.778Z,16.52
2019-04-05T16:21:39.568Z,18.07
2019-04-05T16:24:10.061Z,15.45
2019-04-05T16:26:39.872Z,16.20
2019-04-05T16:29:09.689Z,16.10
2019-04-05T16:31:39.501Z,20.77
2019-04-05T16:34:09.341Z,17.83
2019-04-05T16:36:39.057Z,15.57
2019-04-05T16:39:13.269Z,17.27
2019-04-05T16:41:43.062Z,16.63
2019-04-05T16:44:14.930Z,17.90
2019-04-05T16:46:44.691Z,17.67
2019-04-05T16:49:14.570Z,18.00
2019-04-05T16:51:44.285Z,17.52
2019-04-05T16:54:14.053Z,17.30
2019-04-05T16:56:43.886Z,19.27
2019-04-05T16:59:13.622Z,19.23
2019-04-05T17:01:43.333Z,18.55
2019-04-05T17:04:13.059Z,18.67
2019-04-05T17:06:42.859Z,16.85
2019-04-05T17:09:12.589Z,18.40
2019-04-05T17:11:42.430Z,18.23
2019-04-05T17:14:12.200Z,24.37
2019-04-05T17:16:42.066Z,21.93
2019-04-05T17:19:11.940Z,24.53
2019-04-05T17:21:41.677Z,17.25
2019-04-05T17:24:11.406Z,18.43
2019-04-05T17:26:42.260Z,21.37
2019-04-05T17:29:12.048Z,19.87
2019-04-05T17:31:41.908Z,20.80
2019-04-05T17:34:11.736Z,17.70
2019-04-05T17:36:41.483Z,20.25
2019-04-05T17:39:11.266Z,19.43
2019-04-05T17:41:41.065Z,15.43
2019-04-05T17:44:10.837Z,17.60
2019-04-05T17:46:40.712Z,21.03
2019-04-05T17:49:10.493Z,20.83
2019-04-05T17:51:40.497Z,19.77
2019-04-05T17:54:10.255Z,19.63
2019-04-05T17:56:41.201Z,27.95
2019-04-05T17:59:11.065Z,21.30
2019-04-05T18:01:40.921Z,23.00
2019-04-05T18:04:10.744Z,22.23
2019-04-05T18:06:41.466Z,31.73
2019-04-05T18:09:12.680Z,21.43
2019-04-05T18:11:43.037Z,21.60
2019-04-05T18:14:13.922Z,20.10
2019-04-05T18:16:43.880Z,20.57
2019-04-05T18:19:13.846Z,22.98
2019-04-05T18:21:44.357Z,19.40
2019-04-05T18:24:14.765Z,25.17
2019-04-05T18:26:44.665Z,24.63
2019-04-05T18:29:14.548Z,28.53
2019-04-05T18:31:44.453Z,24.97
2019-04-05T18:34:15.225Z,21.17
2019-04-05T18:36:45.041Z,18.37
2019-04-05T18:39:14.837Z,24.87
2019-04-05T18:41:44.663Z,23.30
2019-04-05T18:44:14.476Z,20.10
2019-04-05T18:46:44.471Z,22.20
2019-04-05T18:49:16.061Z,27.00
2019-04-05T18:51:46.378Z,19.93
2019-04-05T18:54:16.293Z,35.73
2019-04-05T18:56:46.081Z,23.13
2019-04-05T18:59:15.800Z,21.37
2019-04-05T19:01:45.538Z,20.90
2019-04-05T19:04:15.306Z,23.30
2019-04-05T19:06:45.094Z,26.47
2019-04-05T19:09:15.163Z,18.92
2019-04-05T19:11:44.910Z,19.12
2019-04-05T19:14:14.742Z,20.00
2019-04-05T19:16:44.454Z,18.80
2019-04-05T19:19:17.473Z,18.73
2019-04-05T19:21:45.697Z,18.83
2019-04-05T19:24:15.493Z,16.60
2019-04-05T19:26:45.298Z,21.73
2019-04-05T19:29:16.377Z,15.80
2019-04-05T19:49:27.461Z,18.67
2019-04-05T19:51:57.173Z,20.23
2019-04-05T19:54:26.970Z,20.63
2019-04-05T19:56:56.756Z,19.10
2019-04-05T19:59:26.596Z,21.73
2019-04-05T20:01:56.368Z,21.27
2019-04-05T20:04:26.123Z,22.57
2019-04-05T20:06:58.782Z,20.57
2019-04-05T20:09:27.736Z,21.83
2019-04-05T20:11:59.185Z,26.07
2019-04-05T20:14:29.101Z,22.90
2019-04-05T20:16:58.896Z,27.83
2019-04-05T20:19:28.701Z,20.43
2019-04-05T20:21:58.422Z,20.60
2019-04-05T20:24:28.238Z,23.07
2019-04-05T20:26:57.963Z,24.33
2019-04-05T20:29:27.792Z,20.10
2019-04-05T20:31:57.505Z,21.47
2019-04-05T20:34:27.287Z,23.13
2019-04-05T20:36:57.010Z,20.87
2019-04-05T20:39:26.784Z,18.93
2019-04-05T20:41:56.791Z,22.80
2019-04-05T20:44:26.553Z,21.53
2019-04-05T20:46:56.305Z,17.77
2019-04-05T20:49:26.157Z,21.20
2019-04-05T20:51:55.885Z,19.43
2019-04-05T20:54:25.695Z,22.40
2019-04-05T20:56:55.476Z,22.57
2019-04-05T20:59:25.296Z,18.53
2019-04-05T21:01:55.101Z,22.53
2019-04-05T21:04:24.989Z,19.93
2019-04-05T21:06:54.766Z,21.13
2019-04-05T21:09:24.567Z,21.00
2019-04-05T21:11:54.405Z,23.87
2019-04-05T21:14:24.162Z,21.50
2019-04-05T21:16:53.957Z,25.37
2019-04-05T21:19:24.147Z,18.97
2019-04-05T21:21:53.868Z,19.60
2019-04-05T21:24:23.623Z,21.67
2019-04-05T21:26:53.333Z,23.73
2019-04-05T21:29:23.058Z,26.90
2019-04-05T21:31:52.862Z,25.70
2019-04-05T21:34:24.640Z,24.60
2019-04-05T21:36:54.434Z,31.07
2019-04-05T21:39:24.161Z,27.13
2019-04-05T21:41:53.884Z,23.50
2019-04-05T21:44:23.609Z,24.23
2019-04-05T21:46:53.453Z,23.00
2019-04-05T21:49:24.287Z,23.37
2019-04-05T21:51:54.085Z,32.13
2019-04-05T21:54:23.790Z,22.52
2019-04-05T21:56:53.529Z,26.20
2019-04-05T21:59:23.308Z,23.33
2019-04-05T22:01:53.575Z,23.17
2019-04-05T22:04:23.321Z,26.30
2019-04-05T22:06:53.229Z,27.13
2019-04-05T22:09:22.989Z,28.17
2019-04-05T22:11:52.829Z,25.27
2019-04-05T22:14:22.553Z,28.97
2019-04-05T22:16:52.362Z,30.90
2019-04-05T22:19:22.166Z,26.27
2019-04-05T22:21:51.909Z,29.87
2019-04-05T22:24:21.665Z,26.80
2019-04-05T22:26:51.399Z,27.67
2019-04-05T22:29:21.196Z,27.43
2019-04-05T22:31:51.965Z,31.57
2019-04-05T22:34:21.710Z,31.17
2019-04-05T22:36:51.441Z,26.53
2019-04-05T22:39:21.604Z,27.60
2019-04-05T22:41:51.456Z,29.27
2019-04-05T22:44:21.280Z,27.33
2019-04-05T22:46:51.037Z,32.93
2019-04-05T22:49:20.809Z,27.40
2019-04-05T22:51:50.648Z,29.20
2019-04-05T22:54:20.365Z,34.63
2019-04-05T22:56:52.672Z,30.03
2019-04-05T22:59:22.731Z,28.87
2019-04-05T23:01:52.529Z,29.63
2019-04-05T23:04:22.247Z,30.17
2019-04-05T23:06:52.067Z,31.47
2019-04-05T23:09:21.870Z,30.53
2019-04-05T23:11:51.605Z,32.07
2019-04-05T23:14:21.402Z,34.07
2019-04-05T23:16:51.149Z,29.93
2019-04-05T23:19:21.010Z,39.57
2019-04-05T23:21:50.770Z,30.47
2019-04-05T23:24:21.564Z,35.70
2019-04-05T23:26:51.372Z,35.03
2019-04-05T23:29:21.071Z,35.50
2019-04-05T23:31:50.960Z,29.93
2019-04-05T23:34:20.681Z,30.30
2019-04-05T23:36:50.482Z,31.23
2019-04-05T23:39:20.270Z,27.73
2019-04-05T23:41:50.089Z,30.47
2019-04-05T23:44:19.799Z,29.33
2019-04-05T23:46:49.542Z,28.90
2019-04-05T23:49:19.269Z,29.97
2019-04-05T23:51:49.152Z,30.37
2019-04-05T23:54:18.913Z,25.87
2019-04-05T23:56:48.639Z,31.73
2019-04-05T23:59:18.377Z,30.50
